sensor_id;sensor_type;location;lat;lon;timestamp;temperature;humidity
22418;DHT22;11376;50.932;4.442;2023-05-09T00:01:10;14.80;99.90
22418;DHT22;11376;50.932;4.442;2023-05-09T00:03:36;14.70;99.90
22418;DHT22;11376;50.932;4.442;2023-05-09T00:06:01;14.70;99.90
22418;DHT22;11376;50.932;4.442;2023-05-09T00:08:27;14.70;99.90
22418;DHT22;11376;50.932;4.442;2023-05-09T00:10:52;14.70;99.90
22418;DHT22;11376;50.932;4.442;2023-05-09T00:13:18;14.70;99.90
22418;DHT22;11376;50.932;4.442;2023-05-09T00:15:44;14.70;99.90
22418;DHT22;11376;50.932;4.442;2023-05-09T00:18:11;14.70;99.90
22418;DHT22;11376;50.932;4.442;2023-05-09T00:20:37;14.80;99.90
22418;DHT22;11376;50.932;4.442;2023-05-09T00:23:03;14.70;99.90
22418;DHT22;11376;50.932;4.442;2023-05-09T00:25:29;14.80;99.90
22418;DHT22;11376;50.932;4.442;2023-05-09T00:27:54;14.70;99.90
22418;DHT22;11376;50.932;4.442;2023-05-09T00:30:20;14.80;99.90
22418;DHT22;11376;50.932;4.442;2023-05-09T00:32:45;14.70;99.90
22418;DHT22;11376;50.932;4.442;2023-05-09T00:35:11;14.80;99.90
22418;DHT22;11376;50.932;4.442;2023-05-09T00:37:36;14.70;99.90
22418;DHT22;11376;50.932;4.442;2023-05-09T00:40:03;14.70;99.90
22418;DHT22;11376;50.932;4.442;2023-05-09T00:42:29;14.80;99.90
22418;DHT22;11376;50.932;4.442;2023-05-09T00:44:55;14.70;99.90
22418;DHT22;11376;50.932;4.442;2023-05-09T00:47:21;14.70;99.90
22418;DHT22;11376;50.932;4.442;2023-05-09T00:49:47;14.80;99.90
22418;DHT22;11376;50.932;4.442;2023-05-09T00:52:12;14.80;99.90
22418;DHT22;11376;50.932;4.442;2023-05-09T00:54:38;14.80;99.90
22418;DHT22;11376;50.932;4.442;2023-05-09T00:57:04;14.80;99.90
22418;DHT22;11376;50.932;4.442;2023-05-09T00:59:29;14.80;99.90
22418;DHT22;11376;50.932;4.442;2023-05-09T01:01:55;14.80;99.90
22418;DHT22;11376;50.932;4.442;2023-05-09T01:04:20;14.70;99.90
22418;DHT22;11376;50.932;4.442;2023-05-09T01:14:55;14.70;99.90
22418;DHT22;11376;50.932;4.442;2023-05-09T01:17:42;14.70;99.90
22418;DHT22;11376;50.932;4.442;2023-05-09T01:20:17;14.70;99.90
22418;DHT22;11376;50.932;4.442;2023-05-09T01:22:51;14.70;99.90
22418;DHT22;11376;50.932;4.442;2023-05-09T01:26:06;14.70;99.90
22418;DHT22;11376;50.932;4.442;2023-05-09T01:30:37;14.60;99.90
22418;DHT22;11376;50.932;4.442;2023-05-09T01:33:04;14.60;99.90
22418;DHT22;11376;50.932;4.442;2023-05-09T01:35:30;14.60;99.90
22418;DHT22;11376;50.932;4.442;2023-05-09T01:37:57;14.60;99.90
22418;DHT22;11376;50.932;4.442;2023-05-09T01:40:23;14.60;99.90
22418;DHT22;11376;50.932;4.442;2023-05-09T01:45:15;14.60;99.90
22418;DHT22;11376;50.932;4.442;2023-05-09T01:47:41;14.70;99.90
22418;DHT22;11376;50.932;4.442;2023-05-09T01:50:08;14.70;99.90
22418;DHT22;11376;50.932;4.442;2023-05-09T01:52:34;14.70;99.90
22418;DHT22;11376;50.932;4.442;2023-05-09T01:55:00;14.70;99.90
22418;DHT22;11376;50.932;4.442;2023-05-09T01:57:26;14.70;99.90
22418;DHT22;11376;50.932;4.442;2023-05-09T01:59:53;14.70;99.90
22418;DHT22;11376;50.932;4.442;2023-05-09T02:02:19;14.70;99.90
22418;DHT22;11376;50.932;4.442;2023-05-09T02:04:45;14.60;99.90
22418;DHT22;11376;50.932;4.442;2023-05-09T02:07:12;14.60;99.90
22418;DHT22;11376;50.932;4.442;2023-05-09T02:09:37;14.60;99.90
22418;DHT22;11376;50.932;4.442;2023-05-09T02:12:03;14.60;99.90
22418;DHT22;11376;50.932;4.442;2023-05-09T02:14:29;14.60;99.90
22418;DHT22;11376;50.932;4.442;2023-05-09T02:16:54;14.60;99.90
22418;DHT22;11376;50.932;4.442;2023-05-09T02:19:20;14.60;99.90
22418;DHT22;11376;50.932;4.442;2023-05-09T02:21:45;14.60;99.90
22418;DHT22;11376;50.932;4.442;2023-05-09T02:24:11;14.70;99.90
22418;DHT22;11376;50.932;4.442;2023-05-09T02:26:36;14.60;99.90
22418;DHT22;11376;50.932;4.442;2023-05-09T02:29:03;14.60;99.90
22418;DHT22;11376;50.932;4.442;2023-05-09T02:31:29;14.60;99.90
22418;DHT22;11376;50.932;4.442;2023-05-09T02:33:55;14.60;99.90
22418;DHT22;11376;50.932;4.442;2023-05-09T02:36:21;14.60;99.90
22418;DHT22;11376;50.932;4.442;2023-05-09T02:38:48;14.70;99.90
22418;DHT22;11376;50.932;4.442;2023-05-09T02:41:14;14.70;99.90
22418;DHT22;11376;50.932;4.442;2023-05-09T02:43:40;14.70;99.90
22418;DHT22;11376;50.932;4.442;2023-05-09T02:46:06;14.70;99.90
22418;DHT22;11376;50.932;4.442;2023-05-09T02:48:32;14.70;99.90
22418;DHT22;11376;50.932;4.442;2023-05-09T02:50:57;14.70;99.90
22418;DHT22;11376;50.932;4.442;2023-05-09T02:53:23;14.70;99.90
22418;DHT22;11376;50.932;4.442;2023-05-09T02:55:48;14.80;99.90
22418;DHT22;11376;50.932;4.442;2023-05-09T02:58:14;14.90;99.90
22418;DHT22;11376;50.932;4.442;2023-05-09T03:00:40;14.80;99.90
22418;DHT22;11376;50.932;4.442;2023-05-09T03:03:06;14.80;99.90
22418;DHT22;11376;50.932;4.442;2023-05-09T03:05:31;14.80;99.90
22418;DHT22;11376;50.932;4.442;2023-05-09T03:07:57;14.80;99.90
22418;DHT22;11376;50.932;4.442;2023-05-09T03:10:22;14.80;99.90
22418;DHT22;11376;50.932;4.442;2023-05-09T03:12:48;14.80;99.90
22418;DHT22;11376;50.932;4.442;2023-05-09T03:15:13;14.80;99.90
22418;DHT22;11376;50.932;4.442;2023-05-09T03:17:39;14.90;99.90
22418;DHT22;11376;50.932;4.442;2023-05-09T03:20:04;14.90;99.90
22418;DHT22;11376;50.932;4.442;2023-05-09T03:22:30;14.90;99.90
22418;DHT22;11376;50.932;4.442;2023-05-09T03:24:56;14.90;99.90
22418;DHT22;11376;50.932;4.442;2023-05-09T03:27:21;14.90;99.90
22418;DHT22;11376;50.932;4.442;2023-05-09T03:29:47;14.90;99.90
22418;DHT22;11376;50.932;4.442;2023-05-09T03:32:12;14.90;99.90
22418;DHT22;11376;50.932;4.442;2023-05-09T03:34:38;14.90;99.90
22418;DHT22;11376;50.932;4.442;2023-05-09T03:37:03;14.90;99.90
22418;DHT22;11376;50.932;4.442;2023-05-09T03:39:29;14.90;99.90
22418;DHT22;11376;50.932;4.442;2023-05-09T03:41:54;14.90;99.90
22418;DHT22;11376;50.932;4.442;2023-05-09T03:44:20;14.90;99.90
22418;DHT22;11376;50.932;4.442;2023-05-09T03:46:46;15.00;99.90
22418;DHT22;11376;50.932;4.442;2023-05-09T03:49:11;15.00;99.90
22418;DHT22;11376;50.932;4.442;2023-05-09T03:51:37;15.00;99.90
22418;DHT22;11376;50.932;4.442;2023-05-09T03:54:02;15.00;99.90
22418;DHT22;11376;50.932;4.442;2023-05-09T03:56:28;15.00;99.90
22418;DHT22;11376;50.932;4.442;2023-05-09T03:58:53;15.00;99.90
22418;DHT22;11376;50.932;4.442;2023-05-09T04:01:19;15.00;99.90
22418;DHT22;11376;50.932;4.442;2023-05-09T04:03:45;15.00;99.90
22418;DHT22;11376;50.932;4.442;2023-05-09T04:06:10;15.00;99.90
22418;DHT22;11376;50.932;4.442;2023-05-09T04:08:36;15.00;99.90
22418;DHT22;11376;50.932;4.442;2023-05-09T04:11:01;15.00;99.90
22418;DHT22;11376;50.932;4.442;2023-05-09T04:13:27;15.00;99.90
22418;DHT22;11376;50.932;4.442;2023-05-09T04:15:54;15.00;99.90
22418;DHT22;11376;50.932;4.442;2023-05-09T04:18:19;14.90;99.90
22418;DHT22;11376;50.932;4.442;2023-05-09T04:20:45;14.80;99.90
22418;DHT22;11376;50.932;4.442;2023-05-09T04:23:10;14.80;99.90
22418;DHT22;11376;50.932;4.442;2023-05-09T04:25:36;14.70;99.90
22418;DHT22;11376;50.932;4.442;2023-05-09T04:28:01;14.60;99.90
22418;DHT22;11376;50.932;4.442;2023-05-09T04:30:27;14.50;99.90
22418;DHT22;11376;50.932;4.442;2023-05-09T04:32:52;14.60;99.90
22418;DHT22;11376;50.932;4.442;2023-05-09T04:35:20;14.60;99.90
22418;DHT22;11376;50.932;4.442;2023-05-09T04:37:45;14.60;99.90
22418;DHT22;11376;50.932;4.442;2023-05-09T04:40:11;14.60;99.90
22418;DHT22;11376;50.932;4.442;2023-05-09T04:42:37;14.60;99.90
22418;DHT22;11376;50.932;4.442;2023-05-09T04:45:03;14.60;99.90
22418;DHT22;11376;50.932;4.442;2023-05-09T04:47:28;14.60;99.90
22418;DHT22;11376;50.932;4.442;2023-05-09T04:49:54;14.60;99.90
22418;DHT22;11376;50.932;4.442;2023-05-09T04:52:19;14.60;99.90
22418;DHT22;11376;50.932;4.442;2023-05-09T04:54:45;14.60;99.90
22418;DHT22;11376;50.932;4.442;2023-05-09T04:57:11;14.70;99.90
22418;DHT22;11376;50.932;4.442;2023-05-09T04:59:36;14.70;99.90
22418;DHT22;11376;50.932;4.442;2023-05-09T05:02:02;14.70;99.90
22418;DHT22;11376;50.932;4.442;2023-05-09T05:04:27;14.70;99.90
22418;DHT22;11376;50.932;4.442;2023-05-09T05:06:53;14.80;99.90
22418;DHT22;11376;50.932;4.442;2023-05-09T05:09:18;14.80;99.90
22418;DHT22;11376;50.932;4.442;2023-05-09T05:11:44;14.90;99.90
22418;DHT22;11376;50.932;4.442;2023-05-09T05:14:10;14.90;99.90
22418;DHT22;11376;50.932;4.442;2023-05-09T05:16:35;14.90;99.90
22418;DHT22;11376;50.932;4.442;2023-05-09T05:19:01;14.90;99.90
22418;DHT22;11376;50.932;4.442;2023-05-09T05:21:27;14.90;99.90
22418;DHT22;11376;50.932;4.442;2023-05-09T05:23:52;14.90;99.90
22418;DHT22;11376;50.932;4.442;2023-05-09T05:26:18;14.80;99.90
22418;DHT22;11376;50.932;4.442;2023-05-09T05:28:43;14.80;99.90
22418;DHT22;11376;50.932;4.442;2023-05-09T05:31:09;14.70;99.90
22418;DHT22;11376;50.932;4.442;2023-05-09T05:33:35;14.70;99.90
22418;DHT22;11376;50.932;4.442;2023-05-09T05:36:00;14.60;99.90
22418;DHT22;11376;50.932;4.442;2023-05-09T05:38:26;14.50;99.90
22418;DHT22;11376;50.932;4.442;2023-05-09T05:40:51;14.50;99.90
22418;DHT22;11376;50.932;4.442;2023-05-09T05:43:17;14.50;99.90
22418;DHT22;11376;50.932;4.442;2023-05-09T05:45:42;14.40;99.90
22418;DHT22;11376;50.932;4.442;2023-05-09T05:48:08;14.50;99.90
22418;DHT22;11376;50.932;4.442;2023-05-09T05:50:33;14.50;99.90
22418;DHT22;11376;50.932;4.442;2023-05-09T05:53:00;14.50;99.90
22418;DHT22;11376;50.932;4.442;2023-05-09T05:55:26;14.50;99.90
22418;DHT22;11376;50.932;4.442;2023-05-09T05:57:52;14.50;99.90
22418;DHT22;11376;50.932;4.442;2023-05-09T06:00:17;14.50;99.90
22418;DHT22;11376;50.932;4.442;2023-05-09T06:02:43;14.60;99.90
22418;DHT22;11376;50.932;4.442;2023-05-09T06:05:09;14.60;99.90
22418;DHT22;11376;50.932;4.442;2023-05-09T06:07:35;14.60;99.90
22418;DHT22;11376;50.932;4.442;2023-05-09T06:10:01;14.60;99.90
22418;DHT22;11376;50.932;4.442;2023-05-09T06:12:26;14.70;99.90
22418;DHT22;11376;50.932;4.442;2023-05-09T06:14:52;14.80;99.90
22418;DHT22;11376;50.932;4.442;2023-05-09T06:17:17;14.70;99.90
22418;DHT22;11376;50.932;4.442;2023-05-09T06:19:43;14.80;99.90
22418;DHT22;11376;50.932;4.442;2023-05-09T06:22:08;14.90;99.90
22418;DHT22;11376;50.932;4.442;2023-05-09T06:24:34;14.90;99.90
22418;DHT22;11376;50.932;4.442;2023-05-09T06:26:59;14.90;99.90
22418;DHT22;11376;50.932;4.442;2023-05-09T06:29:25;15.00;99.90
22418;DHT22;11376;50.932;4.442;2023-05-09T06:31:50;15.10;99.90
22418;DHT22;11376;50.932;4.442;2023-05-09T06:34:16;15.20;99.90
22418;DHT22;11376;50.932;4.442;2023-05-09T06:36:41;15.10;99.90
22418;DHT22;11376;50.932;4.442;2023-05-09T06:39:07;15.20;99.90
22418;DHT22;11376;50.932;4.442;2023-05-09T06:41:32;15.30;99.90
22418;DHT22;11376;50.932;4.442;2023-05-09T06:43:58;15.30;99.90
22418;DHT22;11376;50.932;4.442;2023-05-09T06:46:23;15.30;99.90
22418;DHT22;11376;50.932;4.442;2023-05-09T06:48:49;15.30;99.90
22418;DHT22;11376;50.932;4.442;2023-05-09T06:51:15;15.20;99.90
22418;DHT22;11376;50.932;4.442;2023-05-09T06:53:40;15.30;99.90
22418;DHT22;11376;50.932;4.442;2023-05-09T06:56:06;15.30;99.90
22418;DHT22;11376;50.932;4.442;2023-05-09T06:58:31;15.20;99.90
22418;DHT22;11376;50.932;4.442;2023-05-09T07:00:57;15.30;99.90
22418;DHT22;11376;50.932;4.442;2023-05-09T07:03:23;15.20;99.90
22418;DHT22;11376;50.932;4.442;2023-05-09T07:05:48;15.30;99.90
22418;DHT22;11376;50.932;4.442;2023-05-09T07:08:14;15.40;99.90
22418;DHT22;11376;50.932;4.442;2023-05-09T07:10:39;15.30;99.90
22418;DHT22;11376;50.932;4.442;2023-05-09T07:13:05;15.40;99.90
22418;DHT22;11376;50.932;4.442;2023-05-09T07:15:30;15.40;99.90
22418;DHT22;11376;50.932;4.442;2023-05-09T07:17:56;15.50;99.90
22418;DHT22;11376;50.932;4.442;2023-05-09T07:20:21;15.50;99.90
22418;DHT22;11376;50.932;4.442;2023-05-09T07:22:47;15.60;99.90
22418;DHT22;11376;50.932;4.442;2023-05-09T07:25:12;15.60;99.90
22418;DHT22;11376;50.932;4.442;2023-05-09T07:27:38;15.50;99.90
22418;DHT22;11376;50.932;4.442;2023-05-09T07:30:04;15.50;99.90
22418;DHT22;11376;50.932;4.442;2023-05-09T07:32:30;15.50;99.90
22418;DHT22;11376;50.932;4.442;2023-05-09T07:34:56;15.50;99.90
22418;DHT22;11376;50.932;4.442;2023-05-09T07:37:21;15.50;99.90
22418;DHT22;11376;50.932;4.442;2023-05-09T07:39:47;15.50;99.90
22418;DHT22;11376;50.932;4.442;2023-05-09T07:42:12;15.50;99.90
22418;DHT22;11376;50.932;4.442;2023-05-09T07:44:38;15.50;99.90
22418;DHT22;11376;50.932;4.442;2023-05-09T07:47:04;15.50;99.90
22418;DHT22;11376;50.932;4.442;2023-05-09T07:49:32;15.50;99.90
22418;DHT22;11376;50.932;4.442;2023-05-09T07:51:58;15.50;99.90
22418;DHT22;11376;50.932;4.442;2023-05-09T07:54:23;15.60;99.90
22418;DHT22;11376;50.932;4.442;2023-05-09T07:56:49;15.60;99.90
22418;DHT22;11376;50.932;4.442;2023-05-09T07:59:15;15.70;99.90
22418;DHT22;11376;50.932;4.442;2023-05-09T08:01:41;15.70;99.90
22418;DHT22;11376;50.932;4.442;2023-05-09T08:04:06;15.60;99.90
22418;DHT22;11376;50.932;4.442;2023-05-09T08:06:33;15.50;99.90
22418;DHT22;11376;50.932;4.442;2023-05-09T08:08:59;15.60;99.90
22418;DHT22;11376;50.932;4.442;2023-05-09T08:11:24;15.60;99.90
22418;DHT22;11376;50.932;4.442;2023-05-09T08:13:50;15.50;99.90
22418;DHT22;11376;50.932;4.442;2023-05-09T08:16:16;15.40;99.90
22418;DHT22;11376;50.932;4.442;2023-05-09T08:18:42;15.30;99.90
22418;DHT22;11376;50.932;4.442;2023-05-09T08:21:07;15.30;99.90
22418;DHT22;11376;50.932;4.442;2023-05-09T08:23:33;15.20;99.90
22418;DHT22;11376;50.932;4.442;2023-05-09T08:25:58;15.00;99.90
22418;DHT22;11376;50.932;4.442;2023-05-09T08:28:24;15.10;99.90
22418;DHT22;11376;50.932;4.442;2023-05-09T08:30:53;15.00;99.90
22418;DHT22;11376;50.932;4.442;2023-05-09T08:33:18;15.10;99.90
22418;DHT22;11376;50.932;4.442;2023-05-09T08:35:44;15.30;99.90
22418;DHT22;11376;50.932;4.442;2023-05-09T08:38:10;15.30;99.90
22418;DHT22;11376;50.932;4.442;2023-05-09T08:40:35;15.60;99.90
22418;DHT22;11376;50.932;4.442;2023-05-09T08:43:02;15.60;99.90
22418;DHT22;11376;50.932;4.442;2023-05-09T08:45:28;15.60;99.90
22418;DHT22;11376;50.932;4.442;2023-05-09T08:47:54;15.40;99.90
22418;DHT22;11376;50.932;4.442;2023-05-09T08:50:20;15.30;99.90
22418;DHT22;11376;50.932;4.442;2023-05-09T08:52:45;15.30;99.90
22418;DHT22;11376;50.932;4.442;2023-05-09T08:55:11;15.30;99.90
22418;DHT22;11376;50.932;4.442;2023-05-09T08:57:38;15.30;99.90
22418;DHT22;11376;50.932;4.442;2023-05-09T09:00:04;15.20;99.90
22418;DHT22;11376;50.932;4.442;2023-05-09T09:02:35;15.30;99.90
22418;DHT22;11376;50.932;4.442;2023-05-09T09:05:01;15.30;99.90
22418;DHT22;11376;50.932;4.442;2023-05-09T09:07:27;15.30;99.90
22418;DHT22;11376;50.932;4.442;2023-05-09T09:09:52;15.30;99.90
22418;DHT22;11376;50.932;4.442;2023-05-09T09:12:19;15.20;99.90
22418;DHT22;11376;50.932;4.442;2023-05-09T09:14:47;15.30;99.90
22418;DHT22;11376;50.932;4.442;2023-05-09T09:17:16;15.10;99.90
22418;DHT22;11376;50.932;4.442;2023-05-09T09:19:43;15.00;99.90
22418;DHT22;11376;50.932;4.442;2023-05-09T09:22:09;15.00;99.90
22418;DHT22;11376;50.932;4.442;2023-05-09T09:24:37;15.00;99.90
22418;DHT22;11376;50.932;4.442;2023-05-09T09:27:03;15.00;99.90
22418;DHT22;11376;50.932;4.442;2023-05-09T09:29:29;14.90;99.90
22418;DHT22;11376;50.932;4.442;2023-05-09T09:31:56;14.90;99.90
22418;DHT22;11376;50.932;4.442;2023-05-09T09:34:21;15.00;99.90
22418;DHT22;11376;50.932;4.442;2023-05-09T09:36:47;15.10;99.90
22418;DHT22;11376;50.932;4.442;2023-05-09T09:39:13;15.20;99.90
22418;DHT22;11376;50.932;4.442;2023-05-09T09:41:39;15.20;99.90
22418;DHT22;11376;50.932;4.442;2023-05-09T09:44:05;15.30;99.90
22418;DHT22;11376;50.932;4.442;2023-05-09T09:46:44;15.30;99.90
22418;DHT22;11376;50.932;4.442;2023-05-09T09:49:14;15.30;99.90
22418;DHT22;11376;50.932;4.442;2023-05-09T09:51:40;15.20;99.90
22418;DHT22;11376;50.932;4.442;2023-05-09T09:54:06;15.10;99.90
22418;DHT22;11376;50.932;4.442;2023-05-09T09:59:07;15.00;99.90
22418;DHT22;11376;50.932;4.442;2023-05-09T10:01:32;14.90;99.90
22418;DHT22;11376;50.932;4.442;2023-05-09T10:03:58;14.90;99.90
22418;DHT22;11376;50.932;4.442;2023-05-09T10:06:27;14.90;99.90
22418;DHT22;11376;50.932;4.442;2023-05-09T10:08:52;14.70;99.90
22418;DHT22;11376;50.932;4.442;2023-05-09T10:11:18;14.80;99.90
22418;DHT22;11376;50.932;4.442;2023-05-09T10:13:43;14.70;99.90
22418;DHT22;11376;50.932;4.442;2023-05-09T10:16:09;14.70;99.90
22418;DHT22;11376;50.932;4.442;2023-05-09T10:18:35;14.80;99.90
22418;DHT22;11376;50.932;4.442;2023-05-09T10:21:01;14.90;99.90
22418;DHT22;11376;50.932;4.442;2023-05-09T10:23:29;14.90;99.90
22418;DHT22;11376;50.932;4.442;2023-05-09T10:26:03;15.00;99.90
22418;DHT22;11376;50.932;4.442;2023-05-09T10:28:30;14.80;99.90
22418;DHT22;11376;50.932;4.442;2023-05-09T10:30:58;14.80;99.90
22418;DHT22;11376;50.932;4.442;2023-05-09T10:33:25;14.90;99.90
22418;DHT22;11376;50.932;4.442;2023-05-09T10:35:57;15.00;99.90
22418;DHT22;11376;50.932;4.442;2023-05-09T10:38:24;14.90;99.90
22418;DHT22;11376;50.932;4.442;2023-05-09T10:40:50;14.80;99.90
22418;DHT22;11376;50.932;4.442;2023-05-09T10:43:17;14.90;99.90
22418;DHT22;11376;50.932;4.442;2023-05-09T10:45:43;14.80;99.90
22418;DHT22;11376;50.932;4.442;2023-05-09T10:48:08;14.80;99.90
22418;DHT22;11376;50.932;4.442;2023-05-09T10:50:35;14.90;99.90
22418;DHT22;11376;50.932;4.442;2023-05-09T10:58:28;14.80;99.90
22418;DHT22;11376;50.932;4.442;2023-05-09T11:00:55;14.70;99.90
22418;DHT22;11376;50.932;4.442;2023-05-09T11:03:21;14.80;99.90
22418;DHT22;11376;50.932;4.442;2023-05-09T11:05:51;14.80;99.90
22418;DHT22;11376;50.932;4.442;2023-05-09T11:10:50;14.60;99.90
22418;DHT22;11376;50.932;4.442;2023-05-09T11:13:23;14.60;99.90
22418;DHT22;11376;50.932;4.442;2023-05-09T11:16:10;14.50;99.90
22418;DHT22;11376;50.932;4.442;2023-05-09T11:18:34;14.50;99.90
22418;DHT22;11376;50.932;4.442;2023-05-09T11:21:13;14.60;99.90
22418;DHT22;11376;50.932;4.442;2023-05-09T11:23:38;14.50;99.90
22418;DHT22;11376;50.932;4.442;2023-05-09T11:26:05;14.50;99.90
22418;DHT22;11376;50.932;4.442;2023-05-09T11:28:34;14.40;99.90
22418;DHT22;11376;50.932;4.442;2023-05-09T11:33:36;14.50;99.90
22418;DHT22;11376;50.932;4.442;2023-05-09T11:36:15;14.40;99.90
22418;DHT22;11376;50.932;4.442;2023-05-09T11:38:42;14.30;99.90
22418;DHT22;11376;50.932;4.442;2023-05-09T11:41:08;14.30;99.90
22418;DHT22;11376;50.932;4.442;2023-05-09T11:43:34;14.30;99.90
22418;DHT22;11376;50.932;4.442;2023-05-09T11:46:01;14.30;99.90
22418;DHT22;11376;50.932;4.442;2023-05-09T11:48:27;14.40;99.90
22418;DHT22;11376;50.932;4.442;2023-05-09T11:50:52;14.30;99.90
22418;DHT22;11376;50.932;4.442;2023-05-09T11:53:18;14.40;99.90
22418;DHT22;11376;50.932;4.442;2023-05-09T11:55:43;14.40;99.90
22418;DHT22;11376;50.932;4.442;2023-05-09T11:58:09;14.60;99.90
22418;DHT22;11376;50.932;4.442;2023-05-09T12:00:34;14.60;99.90
22418;DHT22;11376;50.932;4.442;2023-05-09T12:03:03;14.50;99.90
22418;DHT22;11376;50.932;4.442;2023-05-09T12:05:29;14.50;99.90
22418;DHT22;11376;50.932;4.442;2023-05-09T12:07:54;14.50;99.90
22418;DHT22;11376;50.932;4.442;2023-05-09T12:10:26;14.50;99.90
22418;DHT22;11376;50.932;4.442;2023-05-09T12:12:52;14.50;99.90
22418;DHT22;11376;50.932;4.442;2023-05-09T12:15:19;14.50;99.90
22418;DHT22;11376;50.932;4.442;2023-05-09T12:17:45;14.40;99.90
22418;DHT22;11376;50.932;4.442;2023-05-09T12:20:11;14.30;99.90
22418;DHT22;11376;50.932;4.442;2023-05-09T12:22:37;14.30;99.90
22418;DHT22;11376;50.932;4.442;2023-05-09T12:25:06;14.10;99.90
22418;DHT22;11376;50.932;4.442;2023-05-09T12:27:36;14.10;99.90
22418;DHT22;11376;50.932;4.442;2023-05-09T12:30:05;14.10;99.90
22418;DHT22;11376;50.932;4.442;2023-05-09T12:32:40;14.20;99.90
22418;DHT22;11376;50.932;4.442;2023-05-09T12:35:07;14.20;99.90
22418;DHT22;11376;50.932;4.442;2023-05-09T12:37:34;14.00;99.90
22418;DHT22;11376;50.932;4.442;2023-05-09T12:42:33;14.00;99.90
22418;DHT22;11376;50.932;4.442;2023-05-09T12:45:00;13.90;99.90
22418;DHT22;11376;50.932;4.442;2023-05-09T12:47:26;13.90;99.90
22418;DHT22;11376;50.932;4.442;2023-05-09T12:49:55;14.00;99.90
22418;DHT22;11376;50.932;4.442;2023-05-09T12:52:21;13.90;99.90
22418;DHT22;11376;50.932;4.442;2023-05-09T12:54:47;14.00;99.90
22418;DHT22;11376;50.932;4.442;2023-05-09T12:57:19;14.00;99.90
22418;DHT22;11376;50.932;4.442;2023-05-09T12:59:45;13.80;99.90
22418;DHT22;11376;50.932;4.442;2023-05-09T13:02:11;13.90;99.90
22418;DHT22;11376;50.932;4.442;2023-05-09T13:04:37;13.80;99.90
22418;DHT22;11376;50.932;4.442;2023-05-09T13:07:07;13.80;99.90
22418;DHT22;11376;50.932;4.442;2023-05-09T13:09:33;13.70;99.90
22418;DHT22;11376;50.932;4.442;2023-05-09T13:11:58;13.60;99.90
22418;DHT22;11376;50.932;4.442;2023-05-09T13:14:25;13.60;99.90
22418;DHT22;11376;50.932;4.442;2023-05-09T13:16:50;13.50;99.90
22418;DHT22;11376;50.932;4.442;2023-05-09T13:19:16;13.50;99.90
22418;DHT22;11376;50.932;4.442;2023-05-09T13:21:41;13.60;99.90
22418;DHT22;11376;50.932;4.442;2023-05-09T13:24:07;13.60;99.90
22418;DHT22;11376;50.932;4.442;2023-05-09T13:26:32;13.50;99.90
22418;DHT22;11376;50.932;4.442;2023-05-09T13:28:58;13.50;99.90
22418;DHT22;11376;50.932;4.442;2023-05-09T13:31:24;13.60;99.90
22418;DHT22;11376;50.932;4.442;2023-05-09T13:33:49;13.60;99.90
22418;DHT22;11376;50.932;4.442;2023-05-09T13:36:15;13.60;99.90
22418;DHT22;11376;50.932;4.442;2023-05-09T13:38:41;13.60;99.90
22418;DHT22;11376;50.932;4.442;2023-05-09T13:41:07;13.60;99.90
22418;DHT22;11376;50.932;4.442;2023-05-09T13:43:33;13.60;99.90
22418;DHT22;11376;50.932;4.442;2023-05-09T13:45:58;13.70;99.90
22418;DHT22;11376;50.932;4.442;2023-05-09T13:48:24;13.60;99.90
22418;DHT22;11376;50.932;4.442;2023-05-09T13:50:49;13.60;99.90
22418;DHT22;11376;50.932;4.442;2023-05-09T13:53:15;13.60;99.90
22418;DHT22;11376;50.932;4.442;2023-05-09T13:55:40;13.60;99.90
22418;DHT22;11376;50.932;4.442;2023-05-09T13:58:07;13.60;99.90
22418;DHT22;11376;50.932;4.442;2023-05-09T14:00:32;13.70;99.90
22418;DHT22;11376;50.932;4.442;2023-05-09T14:02:58;13.70;99.90
22418;DHT22;11376;50.932;4.442;2023-05-09T14:05:23;13.70;99.90
22418;DHT22;11376;50.932;4.442;2023-05-09T14:07:49;13.60;99.90
22418;DHT22;11376;50.932;4.442;2023-05-09T14:10:15;13.60;99.90
22418;DHT22;11376;50.932;4.442;2023-05-09T14:12:41;13.60;99.90
22418;DHT22;11376;50.932;4.442;2023-05-09T14:15:08;13.60;99.90
22418;DHT22;11376;50.932;4.442;2023-05-09T14:17:34;13.60;99.90
22418;DHT22;11376;50.932;4.442;2023-05-09T14:19:59;13.60;99.90
22418;DHT22;11376;50.932;4.442;2023-05-09T14:22:25;13.50;99.90
22418;DHT22;11376;50.932;4.442;2023-05-09T14:24:51;13.50;99.90
22418;DHT22;11376;50.932;4.442;2023-05-09T14:27:16;13.50;99.90
22418;DHT22;11376;50.932;4.442;2023-05-09T14:29:42;13.40;99.90
22418;DHT22;11376;50.932;4.442;2023-05-09T14:32:08;13.40;99.90
22418;DHT22;11376;50.932;4.442;2023-05-09T14:34:39;13.50;99.90
22418;DHT22;11376;50.932;4.442;2023-05-09T14:37:05;13.40;99.90
22418;DHT22;11376;50.932;4.442;2023-05-09T14:39:41;13.30;99.90
22418;DHT22;11376;50.932;4.442;2023-05-09T14:42:07;13.20;99.90
22418;DHT22;11376;50.932;4.442;2023-05-09T14:44:35;13.10;99.90
22418;DHT22;11376;50.932;4.442;2023-05-09T14:47:01;13.00;99.90
22418;DHT22;11376;50.932;4.442;2023-05-09T14:49:26;13.00;99.90
22418;DHT22;11376;50.932;4.442;2023-05-09T14:51:52;13.00;99.90
22418;DHT22;11376;50.932;4.442;2023-05-09T14:54:17;13.00;99.90
22418;DHT22;11376;50.932;4.442;2023-05-09T14:56:43;13.00;99.90
22418;DHT22;11376;50.932;4.442;2023-05-09T14:59:09;13.00;99.90
22418;DHT22;11376;50.932;4.442;2023-05-09T15:01:34;13.10;99.90
22418;DHT22;11376;50.932;4.442;2023-05-09T15:04:00;13.10;99.90
22418;DHT22;11376;50.932;4.442;2023-05-09T15:06:25;13.10;99.90
22418;DHT22;11376;50.932;4.442;2023-05-09T15:08:51;13.10;99.90
22418;DHT22;11376;50.932;4.442;2023-05-09T15:11:16;13.10;99.90
22418;DHT22;11376;50.932;4.442;2023-05-09T15:13:42;13.20;99.90
22418;DHT22;11376;50.932;4.442;2023-05-09T15:16:07;13.10;99.90
22418;DHT22;11376;50.932;4.442;2023-05-09T15:18:33;13.10;99.90
22418;DHT22;11376;50.932;4.442;2023-05-09T15:20:59;13.10;99.90
22418;DHT22;11376;50.932;4.442;2023-05-09T15:23:24;13.20;99.90
22418;DHT22;11376;50.932;4.442;2023-05-09T15:25:50;13.30;99.90
22418;DHT22;11376;50.932;4.442;2023-05-09T15:28:15;13.20;99.90
22418;DHT22;11376;50.932;4.442;2023-05-09T15:30:41;13.30;99.90
22418;DHT22;11376;50.932;4.442;2023-05-09T15:33:07;13.40;99.90
22418;DHT22;11376;50.932;4.442;2023-05-09T15:35:32;13.40;99.90
22418;DHT22;11376;50.932;4.442;2023-05-09T15:37:58;13.40;99.90
22418;DHT22;11376;50.932;4.442;2023-05-09T15:40:23;13.40;99.90
22418;DHT22;11376;50.932;4.442;2023-05-09T15:42:49;13.50;99.90
22418;DHT22;11376;50.932;4.442;2023-05-09T15:45:15;13.50;99.90
22418;DHT22;11376;50.932;4.442;2023-05-09T15:47:41;13.40;99.90
22418;DHT22;11376;50.932;4.442;2023-05-09T15:50:06;13.50;99.90
22418;DHT22;11376;50.932;4.442;2023-05-09T15:52:32;13.40;99.90